createdAt,value
2023-03-15T00:01:24.539Z,100392.97
2023-03-15T00:03:52.224Z,100390.06
2023-03-15T00:06:21.760Z,100399.47
2023-03-15T00:08:51.984Z,100406.97
2023-03-15T00:11:20.325Z,100411.19
2023-03-15T00:13:47.983Z,100417.69
2023-03-15T00:16:17.633Z,100412.91
2023-03-15T00:18:46.932Z,100422.22
2023-03-15T00:21:15.786Z,100432.97
2023-03-15T00:23:44.758Z,100429.72
2023-03-15T00:26:14.192Z,100443.91
2023-03-15T00:28:42.538Z,100440.91
2023-03-15T00:31:15.625Z,100433.13
2023-03-15T00:33:46.551Z,100435.06
2023-03-15T00:36:17.524Z,100446.34
2023-03-15T00:38:47.590Z,100451.31
2023-03-15T00:41:18.470Z,100450.84
2023-03-15T00:43:47.784Z,100460.53
2023-03-15T00:46:19.379Z,100465.75
2023-03-15T00:48:49.206Z,100476.38
2023-03-15T00:51:21.133Z,100479.06
2023-03-15T00:53:51.490Z,100484.25
2023-03-15T00:56:21.739Z,100474.75
2023-03-15T00:58:52.779Z,100481.91
2023-03-15T01:01:23.200Z,100484.31
2023-03-15T01:03:51.776Z,100488.09
2023-03-15T01:06:22.608Z,100494.28
2023-03-15T01:08:52.381Z,100489.47
2023-03-15T01:11:24.156Z,100490.31
2023-03-15T01:13:52.147Z,100490.59
2023-03-15T01:16:20.845Z,100493.69
2023-03-15T01:18:48.642Z,100494.13
2023-03-15T01:21:17.386Z,100499.06
2023-03-15T01:23:47.759Z,100492.38
2023-03-15T01:26:18.748Z,100490.22
2023-03-15T01:28:46.497Z,100491.31
2023-03-15T01:31:18.612Z,100495.97
2023-03-15T01:33:47.951Z,100483.06
2023-03-15T01:36:16.110Z,100488.47
2023-03-15T01:38:44.579Z,100476.47
2023-03-15T01:41:16.862Z,100485.34
2023-03-15T01:43:47.178Z,100487.22
2023-03-15T01:46:29.601Z,100484.66
2023-03-15T01:49:09.640Z,100492.72
2023-03-15T01:51:45.986Z,100488.53
2023-03-15T01:54:19.208Z,100484.38
2023-03-15T01:56:56.669Z,100495.84
2023-03-15T01:59:31.996Z,100491.63
2023-03-15T02:02:01.463Z,100500.53
2023-03-15T02:04:35.209Z,100495.34
2023-03-15T02:07:05.571Z,100500.53
2023-03-15T02:09:41.627Z,100504.25
2023-03-15T02:12:12.275Z,100509.66
2023-03-15T02:14:41.778Z,100514.91
2023-03-15T02:17:13.650Z,100515.00
2023-03-15T02:19:51.108Z,100528.09
2023-03-15T02:22:31.014Z,100529.13
2023-03-15T02:25:05.839Z,100527.25
2023-03-15T02:27:38.693Z,100527.25
2023-03-15T02:30:08.942Z,100529.97
2023-03-15T02:32:37.576Z,100533.25
2023-03-15T02:35:06.462Z,100532.66
2023-03-15T02:37:34.064Z,100528.28
2023-03-15T02:40:02.517Z,100532.50
2023-03-15T02:42:31.554Z,100526.66
2023-03-15T02:45:00.622Z,100534.19
2023-03-15T02:47:34.626Z,100538.69
2023-03-15T02:50:03.631Z,100543.00
2023-03-15T02:52:32.562Z,100545.72
2023-03-15T02:55:03.088Z,100542.06
2023-03-15T02:57:33.982Z,100557.78
2023-03-15T03:00:11.635Z,100563.81
2023-03-15T03:02:40.264Z,100560.06
2023-03-15T03:05:11.738Z,100567.84
2023-03-15T03:07:42.735Z,100557.19
2023-03-15T03:10:18.380Z,100567.69
2023-03-15T03:12:53.388Z,100572.59
2023-03-15T03:15:27.741Z,100580.63
2023-03-15T03:17:55.385Z,100579.53
2023-03-15T03:20:24.394Z,100585.47
2023-03-15T03:22:51.993Z,100596.81
2023-03-15T03:25:19.662Z,100596.72
2023-03-15T03:27:49.006Z,100598.41
2023-03-15T03:30:17.294Z,100601.88
2023-03-15T03:32:51.785Z,100613.97
2023-03-15T03:35:21.441Z,100621.75
2023-03-15T03:37:49.030Z,100619.03
2023-03-15T03:40:21.683Z,100623.38
2023-03-15T03:42:49.534Z,100627.69
2023-03-15T03:45:19.723Z,100632.00
2023-03-15T03:47:53.621Z,100632.75
2023-03-15T03:50:22.141Z,100644.88
2023-03-15T03:52:49.816Z,100649.09
2023-03-15T03:55:25.012Z,100647.41
2023-03-15T03:57:54.716Z,100655.19
2023-03-15T04:00:41.638Z,100649.78
2023-03-15T04:03:11.530Z,100657.56
2023-03-15T04:05:42.800Z,100660.09
2023-03-15T04:08:14.539Z,100671.63
2023-03-15T04:10:43.089Z,100661.78
2023-03-15T04:13:11.537Z,100671.28
2023-03-15T04:15:41.128Z,100672.78
2023-03-15T04:18:11.607Z,100685.16
2023-03-15T04:20:46.530Z,100680.84
2023-03-15T04:23:15.100Z,100691.44
2023-03-15T04:26:03.793Z,100691.34
2023-03-15T04:28:51.565Z,100698.19
2023-03-15T04:31:39.293Z,100702.44
2023-03-15T04:34:28.224Z,100696.25
2023-03-15T04:37:02.855Z,100697.78
2023-03-15T04:39:52.549Z,100695.41
2023-03-15T04:42:20.685Z,100696.50
2023-03-15T04:45:11.781Z,100705.31
2023-03-15T04:47:39.342Z,100701.00
2023-03-15T04:50:32.055Z,100707.44
2023-03-15T04:53:22.625Z,100715.44
2023-03-15T04:56:04.908Z,100722.66
2023-03-15T04:59:08.029Z,100720.19
2023-03-15T05:01:56.644Z,100723.91
2023-03-15T05:04:33.823Z,100733.63
2023-03-15T05:07:26.793Z,100739.19
2023-03-15T05:10:17.415Z,100745.56
2023-03-15T05:13:03.554Z,100749.88
2023-03-15T05:15:49.142Z,100742.06
2023-03-15T05:18:35.502Z,100747.25
2023-03-15T05:21:26.339Z,100747.16
2023-03-15T05:24:08.595Z,100741.91
2023-03-15T05:26:54.111Z,100744.44
2023-03-15T05:29:40.536Z,100751.47
2023-03-15T05:32:26.644Z,100758.50
2023-03-15T05:35:43.932Z,100775.31
2023-03-15T05:38:31.853Z,100778.88
2023-03-15T05:41:11.339Z,100789.34
2023-03-15T05:44:00.365Z,100790.19
2023-03-15T05:46:46.459Z,100796.28
2023-03-15T05:49:37.346Z,100798.91
2023-03-15T05:52:24.067Z,100800.56
2023-03-15T05:55:10.527Z,100813.91
2023-03-15T05:57:53.646Z,100829.72
2023-03-15T06:00:39.582Z,100837.59
2023-03-15T06:03:17.588Z,100839.41
2023-03-15T06:05:56.988Z,100842.84
2023-03-15T06:08:34.545Z,100844.53
2023-03-15T06:11:02.226Z,100845.38
2023-03-15T06:13:32.534Z,100848.94
2023-03-15T06:16:02.694Z,100853.16
2023-03-15T06:18:31.989Z,100845.22
2023-03-15T06:21:00.605Z,100861.72
2023-03-15T06:23:28.538Z,100862.41
2023-03-15T06:25:56.636Z,100878.94
2023-03-15T06:28:26.071Z,100874.69
2023-03-15T06:30:59.676Z,100873.81
2023-03-15T06:33:36.546Z,100883.34
2023-03-15T06:36:04.855Z,100877.06
2023-03-15T06:38:32.829Z,100877.16
2023-03-15T06:41:02.664Z,100873.78
2023-03-15T06:43:31.814Z,100884.19
2023-03-15T06:46:02.576Z,100892.13
2023-03-15T06:48:33.533Z,100893.97
2023-03-15T06:51:01.629Z,100897.44
2023-03-15T06:53:29.212Z,100908.78
2023-03-15T06:55:56.862Z,100906.25
2023-03-15T06:58:24.427Z,100914.09
2023-03-15T07:00:52.269Z,100913.19
2023-03-15T07:03:22.273Z,100914.03
2023-03-15T07:05:52.583Z,100915.81
2023-03-15T07:08:20.707Z,100920.81
2023-03-15T07:10:49.538Z,100935.72
2023-03-15T07:13:18.280Z,100933.94
2023-03-15T07:15:47.643Z,100933.94
2023-03-15T07:21:10.184Z,100941.50
2023-03-15T07:23:39.550Z,100951.00
2023-03-15T07:26:07.157Z,100939.50
2023-03-15T07:28:35.085Z,100948.97
2023-03-15T07:31:04.513Z,100949.78
2023-03-15T07:33:34.543Z,100948.66
2023-03-15T07:36:05.092Z,100961.78
2023-03-15T07:38:35.644Z,100962.41
2023-03-15T07:41:04.044Z,100966.16
2023-03-15T07:43:31.972Z,100971.44
2023-03-15T07:46:12.239Z,100974.28
2023-03-15T07:48:40.169Z,100986.19
2023-03-15T07:51:11.542Z,100993.88
2023-03-15T07:54:06.265Z,100999.53
2023-03-15T07:56:34.638Z,101004.28
2023-03-15T07:59:03.602Z,100995.41
2023-03-15T08:01:31.249Z,101000.94
2023-03-15T08:03:58.870Z,101009.03
2023-03-15T08:06:26.617Z,101006.91
2023-03-15T08:08:55.931Z,101004.47
2023-03-15T08:11:24.862Z,101001.81
2023-03-15T08:14:18.828Z,101012.75
2023-03-15T08:16:47.151Z,101014.22
2023-03-15T08:19:15.101Z,101020.16
2023-03-15T08:21:45.728Z,101026.69
2023-03-15T08:24:13.593Z,101034.94
2023-03-15T08:26:43.526Z,101036.78
2023-03-15T08:29:12.095Z,101039.50
2023-03-15T08:31:40.204Z,101048.84
2023-03-15T08:34:08.086Z,101060.22
2023-03-15T08:36:36.667Z,101063.84
2023-03-15T08:39:05.520Z,101063.69
2023-03-15T08:41:34.532Z,101073.34
2023-03-15T08:44:03.484Z,101068.91
2023-03-15T08:46:33.842Z,101076.22
2023-03-15T08:49:01.580Z,101086.59
2023-03-15T08:51:31.179Z,101082.91
2023-03-15T08:53:59.258Z,101093.63
2023-03-15T08:56:27.422Z,101094.75
2023-03-15T08:58:56.527Z,101099.31
2023-03-15T09:01:25.479Z,101104.31
2023-03-15T09:03:53.725Z,101112.31
2023-03-15T09:06:22.156Z,101109.59
2023-03-15T09:08:50.746Z,101109.75
2023-03-15T09:11:18.920Z,101115.69
2023-03-15T09:13:46.639Z,101112.31
2023-03-15T09:16:14.285Z,101110.19
2023-03-15T09:18:45.283Z,101107.84
2023-03-15T09:21:13.125Z,101111.38
2023-03-15T09:23:40.691Z,101110.75
2023-03-15T09:26:10.708Z,101111.53
2023-03-15T09:28:39.529Z,101118.22
2023-03-15T09:31:08.571Z,101118.47
2023-03-15T09:33:36.722Z,101115.09
2023-03-15T09:36:06.288Z,101125.63
2023-03-15T09:38:34.166Z,101128.28
2023-03-15T09:41:05.546Z,101129.47
2023-03-15T09:43:56.539Z,101131.25
2023-03-15T09:46:30.852Z,101132.09
2023-03-15T09:49:08.860Z,101136.28
2023-03-15T09:51:47.807Z,101138.34
2023-03-15T09:54:19.481Z,101136.19
2023-03-15T09:56:54.191Z,101145.78
2023-03-15T09:59:23.570Z,101143.38
2023-03-15T10:01:57.300Z,101142.09
2023-03-15T10:04:30.466Z,101138.03
2023-03-15T10:07:01.851Z,101140.88
2023-03-15T10:09:33.135Z,101134.75
2023-03-15T10:12:05.625Z,101129.75
2023-03-15T10:14:51.497Z,101131.06
2023-03-15T10:17:29.691Z,101130.66
2023-03-15T10:20:04.322Z,101137.72
2023-03-15T10:22:39.702Z,101128.81
2023-03-15T10:25:16.569Z,101129.94
2023-03-15T10:27:51.657Z,101139.25
2023-03-15T10:30:23.725Z,101140.03
2023-03-15T10:32:59.637Z,101145.97
2023-03-15T10:35:31.960Z,101145.59
2023-03-15T10:38:02.543Z,101143.06
2023-03-15T10:40:42.630Z,101131.44
2023-03-15T10:43:18.622Z,101135.31
2023-03-15T10:45:51.433Z,101139.28
2023-03-15T10:48:19.619Z,101131.56
2023-03-15T10:50:53.675Z,101138.88
2023-03-15T10:53:25.515Z,101139.06
2023-03-15T10:56:00.551Z,101142.84
2023-03-15T10:58:31.424Z,101146.03
2023-03-15T11:01:07.352Z,101145.69
2023-03-15T11:03:36.553Z,101149.16
2023-03-15T11:06:20.767Z,101162.00
2023-03-15T11:08:54.331Z,101163.50
2023-03-15T11:11:21.939Z,101161.53
2023-03-15T11:14:01.331Z,101158.13
2023-03-15T11:16:35.244Z,101159.44
2023-03-15T11:19:06.543Z,101158.22
2023-03-15T11:21:36.778Z,101162.19
2023-03-15T11:24:08.465Z,101152.00
2023-03-15T11:26:38.704Z,101160.84
2023-03-15T11:29:17.556Z,101167.84
2023-03-15T11:31:46.672Z,101172.56
2023-03-15T11:34:21.554Z,101165.47
2023-03-15T11:37:07.265Z,101166.38
2023-03-15T11:39:44.997Z,101160.91
2023-03-15T11:42:21.651Z,101167.94
2023-03-15T11:44:55.633Z,101161.97
2023-03-15T11:47:35.531Z,101179.66
2023-03-15T11:50:03.814Z,101169.00
2023-03-15T11:52:33.538Z,101187.50
2023-03-15T11:55:04.932Z,101185.41
2023-03-15T11:57:44.222Z,101185.63
2023-03-15T12:00:52.315Z,101180.97
2023-03-15T12:03:42.058Z,101187.75
2023-03-15T12:06:37.466Z,101185.28
2023-03-15T12:09:52.214Z,101195.31
2023-03-15T12:12:45.540Z,101201.16
2023-03-15T12:15:49.607Z,101194.56
2023-03-15T12:18:23.626Z,101195.72
2023-03-15T12:20:58.440Z,101192.72
2023-03-15T12:23:38.969Z,101194.72
2023-03-15T12:26:10.877Z,101186.59
2023-03-15T12:28:45.233Z,101182.72
2023-03-15T12:31:15.212Z,101187.84
2023-03-15T12:33:49.145Z,101188.84
2023-03-15T12:36:21.973Z,101192.56
2023-03-15T12:39:01.503Z,101191.19
2023-03-15T12:41:41.105Z,101186.22
2023-03-15T12:44:37.374Z,101189.84
2023-03-15T12:47:06.413Z,101195.22
2023-03-15T12:49:40.993Z,101200.31
2023-03-15T12:52:29.961Z,101196.00
2023-03-15T12:55:06.882Z,101192.81
2023-03-15T13:00:36.751Z,101181.38
2023-03-15T13:03:08.830Z,101175.69
2023-03-15T13:06:02.807Z,101174.31
2023-03-15T13:08:43.317Z,101175.69
2023-03-15T13:11:21.133Z,101177.38
2023-03-15T13:14:06.290Z,101192.94
2023-03-15T13:16:39.971Z,101187.22
2023-03-15T13:19:18.644Z,101177.72
2023-03-15T13:22:08.605Z,101177.50
2023-03-15T13:24:47.535Z,101187.88
2023-03-15T13:27:29.806Z,101187.03
2023-03-15T13:29:57.595Z,101177.81
2023-03-15T13:32:26.647Z,101180.03
2023-03-15T13:34:54.339Z,101187.97
2023-03-15T13:37:26.657Z,101189.22
2023-03-15T13:39:57.551Z,101194.19
2023-03-15T13:42:25.814Z,101194.72
2023-03-15T13:45:11.248Z,101209.53
2023-03-15T13:47:42.637Z,101191.53
2023-03-15T13:50:17.486Z,101198.81
2023-03-15T13:52:45.909Z,101196.25
2023-03-15T13:55:15.729Z,101198.16
2023-03-15T13:57:43.885Z,101193.47
2023-03-15T14:00:17.161Z,101200.13
2023-03-15T14:02:55.105Z,101196.91
2023-03-15T14:05:28.119Z,101202.34
2023-03-15T14:08:02.611Z,101205.19
2023-03-15T14:10:32.510Z,101207.00
2023-03-15T14:13:17.938Z,101210.34
2023-03-15T14:15:48.503Z,101207.91
2023-03-15T14:18:24.542Z,101202.91
2023-03-15T14:20:59.822Z,101216.59
2023-03-15T14:23:31.538Z,101210.75
2023-03-15T14:26:07.491Z,101210.16
2023-03-15T14:28:35.654Z,101211.28
2023-03-15T14:31:04.437Z,101217.88
2023-03-15T14:33:37.334Z,101221.19
2023-03-15T14:36:09.492Z,101218.34
2023-03-15T14:38:39.730Z,101214.31
2023-03-15T14:41:26.233Z,101217.72
2023-03-15T14:43:54.028Z,101223.88
2023-03-15T14:46:21.877Z,101226.03
2023-03-15T14:48:52.130Z,101226.44
2023-03-15T14:51:22.953Z,101234.34
2023-03-15T14:53:54.542Z,101230.44
2023-03-15T14:56:22.238Z,101234.34
2023-03-15T14:58:50.384Z,101235.59
2023-03-15T15:01:24.835Z,101241.53
2023-03-15T15:03:57.939Z,101237.69
2023-03-15T15:06:28.563Z,101242.66
2023-03-15T15:08:58.673Z,101236.09
2023-03-15T15:11:29.080Z,101235.53
2023-03-15T15:13:57.586Z,101237.41
2023-03-15T15:16:25.789Z,101241.97
2023-03-15T15:18:54.769Z,101232.34
2023-03-15T15:21:25.921Z,101238.59
2023-03-15T15:23:58.830Z,101236.69
2023-03-15T15:26:29.099Z,101241.97
2023-03-15T15:28:57.398Z,101241.97
2023-03-15T15:31:26.341Z,101239.31
2023-03-15T15:33:56.738Z,101235.66
2023-03-15T15:36:27.686Z,101239.88
2023-03-15T15:38:55.567Z,101233.75
2023-03-15T15:41:26.562Z,101232.47
2023-03-15T15:43:54.572Z,101232.19
2023-03-15T15:46:23.773Z,101239.78
2023-03-15T15:48:51.989Z,101238.09
2023-03-15T15:51:26.513Z,101239.78
2023-03-15T15:53:58.693Z,101237.25
2023-03-15T15:56:32.814Z,101238.03
2023-03-15T15:59:02.980Z,101242.84
2023-03-15T16:01:31.614Z,101244.47
2023-03-15T16:03:59.591Z,101236.63
2023-03-15T16:06:30.656Z,101241.69
2023-03-15T16:08:59.564Z,101229.53
2023-03-15T16:11:28.717Z,101235.56
2023-03-15T16:13:57.546Z,101236.63
2023-03-15T16:16:25.632Z,101236.94
2023-03-15T16:18:53.213Z,101243.38
2023-03-15T16:21:32.861Z,101241.22
2023-03-15T16:24:06.206Z,101237.94
2023-03-15T16:26:35.515Z,101242.66
2023-03-15T16:29:03.181Z,101242.78
2023-03-15T16:34:26.125Z,101245.72
2023-03-15T16:37:02.901Z,101253.00
2023-03-15T16:39:56.665Z,101251.50
2023-03-15T16:42:57.218Z,101252.75
2023-03-15T16:45:49.534Z,101248.06
2023-03-15T16:52:03.536Z,101259.59
2023-03-15T16:58:54.542Z,101272.06
2023-03-15T17:05:13.345Z,101267.94
2023-03-15T17:08:07.195Z,101267.44
2023-03-15T17:14:20.853Z,101282.50
2023-03-15T17:17:13.927Z,101277.47
2023-03-15T17:19:41.636Z,101280.22
2023-03-15T17:25:28.820Z,101290.53
2023-03-15T17:34:58.955Z,101287.34
2023-03-15T17:40:51.339Z,101289.31
2023-03-15T17:43:21.409Z,101293.25
2023-03-15T17:45:49.564Z,101289.25
2023-03-15T17:48:17.241Z,101307.19
2023-03-15T17:50:45.590Z,101312.97
2023-03-15T17:53:17.189Z,101311.59
2023-03-15T17:55:46.917Z,101307.75
2023-03-15T17:58:26.201Z,101308.16
2023-03-15T18:00:59.934Z,101317.38
2023-03-15T18:03:28.257Z,101321.38
2023-03-15T18:05:58.757Z,101322.63
2023-03-15T18:08:28.638Z,101323.28
2023-03-15T18:10:56.951Z,101316.84
2023-03-15T18:13:28.262Z,101322.66
2023-03-15T18:15:56.229Z,101320.44
2023-03-15T18:18:24.494Z,101314.59
2023-03-15T18:20:52.227Z,101309.66
2023-03-15T18:23:20.474Z,101317.94
2023-03-15T18:25:48.160Z,101319.16
2023-03-15T18:28:17.568Z,101327.44
2023-03-15T18:30:46.634Z,101317.34
2023-03-15T18:33:16.607Z,101324.69
2023-03-15T18:35:44.708Z,101325.13
2023-03-15T18:38:12.616Z,101333.56
2023-03-15T18:40:41.341Z,101326.56
2023-03-15T18:43:12.923Z,101330.69
2023-03-15T18:45:41.747Z,101335.38
2023-03-15T18:48:10.808Z,101338.28
2023-03-15T18:50:38.562Z,101337.66
2023-03-15T18:53:06.720Z,101337.94
2023-03-15T18:55:35.421Z,101339.16
2023-03-15T18:58:04.145Z,101341.19
2023-03-15T19:00:35.916Z,101346.81
2023-03-15T19:03:58.097Z,101347.13
2023-03-15T19:06:27.063Z,101351.78
2023-03-15T19:08:54.768Z,101349.44
2023-03-15T19:11:26.880Z,101354.97
2023-03-15T19:13:56.109Z,101350.06
2023-03-15T19:16:27.557Z,101352.03
2023-03-15T19:22:19.184Z,101348.25
2023-03-15T19:24:47.054Z,101356.38
2023-03-15T19:27:15.009Z,101351.41
2023-03-15T19:29:43.278Z,101355.97
2023-03-15T19:32:10.841Z,101356.19
2023-03-15T19:34:40.534Z,101365.94
2023-03-15T19:37:08.246Z,101369.56
2023-03-15T19:39:36.402Z,101361.88
2023-03-15T19:42:04.905Z,101361.94
2023-03-15T19:47:54.946Z,101360.72
2023-03-15T19:50:25.237Z,101360.94
2023-03-15T19:55:50.090Z,101356.97
2023-03-15T20:01:40.114Z,101374.00
2023-03-15T20:09:05.838Z,101381.59
2023-03-15T20:11:33.508Z,101372.22
2023-03-15T20:14:02.090Z,101384.59
2023-03-15T20:16:54.961Z,101387.31
2023-03-15T20:19:23.466Z,101392.84
2023-03-15T20:21:51.105Z,101395.69
2023-03-15T20:27:13.235Z,101397.78
2023-03-15T20:29:41.562Z,101392.66
2023-03-15T20:32:13.100Z,101393.59
2023-03-15T20:34:41.282Z,101397.28
2023-03-15T20:37:09.649Z,101388.78
2023-03-15T20:39:43.802Z,101388.81
2023-03-15T20:42:13.717Z,101389.00
2023-03-15T20:47:58.780Z,101383.66
2023-03-15T20:50:52.916Z,101396.19
2023-03-15T20:53:21.094Z,101397.97
2023-03-15T20:55:56.792Z,101384.09
2023-03-15T20:58:25.504Z,101386.81
2023-03-15T21:00:57.172Z,101387.84
2023-03-15T21:03:24.925Z,101381.69
2023-03-15T21:05:56.401Z,101384.31
2023-03-15T21:08:24.202Z,101391.31
2023-03-15T21:10:53.666Z,101380.72
2023-03-15T21:13:22.425Z,101392.22
2023-03-15T21:15:53.169Z,101396.47
2023-03-15T21:18:23.142Z,101393.00
2023-03-15T21:20:58.097Z,101393.06
2023-03-15T21:23:28.180Z,101391.47
2023-03-15T21:25:58.850Z,101397.50
2023-03-15T21:28:26.810Z,101395.69
2023-03-15T21:30:56.977Z,101400.97
2023-03-15T21:33:26.486Z,101401.00
2023-03-15T21:36:00.632Z,101397.50
2023-03-15T21:38:31.346Z,101389.75
2023-03-15T21:41:00.614Z,101390.63
2023-03-15T21:43:29.631Z,101399.25
2023-03-15T21:45:59.897Z,101394.16
2023-03-15T21:48:29.549Z,101395.06
2023-03-15T21:50:59.100Z,101393.28
2023-03-15T21:53:26.688Z,101393.28
2023-03-15T21:55:56.404Z,101394.94
2023-03-15T21:58:25.636Z,101388.84
2023-03-15T22:00:58.453Z,101386.34
2023-03-15T22:03:26.638Z,101388.16
2023-03-15T22:05:54.271Z,101378.50
2023-03-15T22:08:22.217Z,101381.22
2023-03-15T22:10:53.015Z,101390.63
2023-03-15T22:13:21.206Z,101389.00
2023-03-15T22:15:51.653Z,101382.19
2023-03-15T22:18:22.013Z,101383.06
2023-03-15T22:20:51.805Z,101381.38
2023-03-15T22:23:23.534Z,101377.06
2023-03-15T22:25:54.352Z,101375.34
2023-03-15T22:28:22.387Z,101376.19
2023-03-15T22:30:52.627Z,101369.28
2023-03-15T22:33:22.199Z,101372.78
2023-03-15T22:35:55.576Z,101377.19
2023-03-15T22:38:24.560Z,101366.75
2023-03-15T22:41:01.527Z,101375.44
2023-03-15T22:43:31.248Z,101378.88
2023-03-15T22:46:00.335Z,101371.13
2023-03-15T22:48:29.069Z,101373.81
2023-03-15T22:50:58.620Z,101377.25
2023-03-15T22:53:26.535Z,101369.41
2023-03-15T22:55:56.173Z,101365.81
2023-03-15T22:58:24.223Z,101371.13
2023-03-15T23:00:52.577Z,101371.97
2023-03-15T23:03:21.622Z,101371.97
2023-03-15T23:05:49.259Z,101370.19
2023-03-15T23:08:17.034Z,101372.78
2023-03-15T23:10:45.671Z,101374.50
2023-03-15T23:13:14.375Z,101363.88
2023-03-15T23:15:42.551Z,101369.00
2023-03-15T23:18:10.565Z,101371.53
2023-03-15T23:20:41.606Z,101375.00
2023-03-15T23:23:10.276Z,101377.63
2023-03-15T23:25:39.192Z,101380.03
2023-03-15T23:28:07.447Z,101372.19
2023-03-15T23:30:36.303Z,101366.06
2023-03-15T23:33:04.345Z,101371.31
2023-03-15T23:35:32.586Z,101367.81
2023-03-15T23:38:01.783Z,101368.63
2023-03-15T23:40:30.320Z,101356.31
2023-03-15T23:42:59.586Z,101358.09
2023-03-15T23:45:29.800Z,101355.38
2023-03-15T23:47:57.579Z,101352.78
2023-03-15T23:50:26.805Z,101348.44
2023-03-15T23:52:57.119Z,101350.66
2023-03-15T23:55:27.215Z,101356.63
2023-03-15T23:57:54.833Z,101365.50
